Time;durP1;ratioP1;P1;durP2;ratioP2;P2;SDS_P1;SDS_P2;PMS_P1;PMS_P2;Temp;Humidity;BMP_temperature;BMP_pressure;BME280_temperature;BME280_humidity;BME280_pressure;Samples;Min_cycle;Max_cycle;Signal;HPM_P1;HPM_P2
2021/05/19 00:00:50;;;;;;;2.72;2.52;;;;;;;22.80;77.49;98082.48;1790350;79;21151;-67
2021/05/19 00:03:17;;;;;;;2.85;2.65;;;;;;;22.77;77.53;98083.05;1786141;79;21001;-67
2021/05/19 00:05:43;;;;;;;2.80;2.60;;;;;;;22.74;77.56;98084.98;1786295;79;21022;-67
2021/05/19 00:08:09;;;;;;;2.67;2.40;;;;;;;22.72;77.64;98089.89;1791326;79;21085;-68
2021/05/19 00:10:37;;;;;;;2.77;2.55;;;;;;;22.70;77.71;98090.73;1778802;79;21082;-69
2021/05/19 00:13:04;;;;;;;2.70;2.50;;;;;;;22.67;77.67;98090.73;1782507;79;21101;-68
2021/05/19 00:15:32;;;;;;;2.33;2.22;;;;;;;22.71;77.63;98091.77;1774978;79;21167;-67
2021/05/19 00:18:04;;;;;;;2.70;2.50;;;;;;;22.80;77.26;98093.86;1795742;79;21209;-66
2021/05/19 00:20:32;;;;;;;2.40;2.20;;;;;;;22.76;77.29;98090.92;1796633;79;21070;-67
2021/05/19 00:22:58;;;;;;;2.58;2.37;;;;;;;22.72;77.24;98091.24;1785322;79;21062;-67
2021/05/19 00:25:25;;;;;;;2.85;2.58;;;;;;;22.69;77.33;98086.39;1789566;79;21101;-68
2021/05/19 00:27:53;;;;;;;2.80;2.60;;;;;;;22.67;77.40;98089.38;1790111;79;21097;-67
2021/05/19 00:30:21;;;;;;;3.50;3.20;;;;;;;22.66;77.48;98080.22;1797167;79;21015;-66
2021/05/19 00:32:48;;;;;;;2.60;2.40;;;;;;;22.64;77.49;98083.73;1792711;77;21068;-67
2021/05/19 00:35:15;;;;;;;2.50;2.30;;;;;;;22.67;77.40;98079.91;1787606;77;21047;-68
2021/05/19 00:37:43;;;;;;;2.80;2.60;;;;;;;22.73;77.01;98074.69;1802872;77;21087;-66
2021/05/19 00:40:13;;;;;;;3.37;2.72;;;;;;;22.70;77.03;98075.28;1789567;77;21053;-68
2021/05/19 00:42:39;;;;;;;2.70;2.50;;;;;;;22.68;77.04;98082.09;1792842;77;21058;-67
2021/05/19 00:45:10;;;;;;;2.70;2.47;;;;;;;22.65;77.10;98086.71;1788779;77;21088;-67
2021/05/19 00:47:39;;;;;;;2.55;2.35;;;;;;;22.63;77.14;98084.84;1789839;77;21104;-67
2021/05/19 00:50:09;;;;;;;3.00;2.80;;;;;;;22.61;77.18;98089.19;1788713;77;21073;-67
2021/05/19 00:52:35;;;;;;;2.72;2.52;;;;;;;22.57;77.28;98082.18;1796869;77;21168;-68
2021/05/19 00:55:02;;;;;;;2.20;2.10;;;;;;;22.55;77.31;98080.31;1796234;77;21103;-68
2021/05/19 00:59:30;;;;;;;2.27;2.17;;;;;;;22.69;77.07;98071.50;1866401;74;22970;-68
2021/05/19 01:01:59;;;;;;;2.83;2.62;;;;;;;22.60;77.02;98070.52;1851930;77;20997;-66
2021/05/19 01:04:25;;;;;;;3.10;2.80;;;;;;;22.56;77.13;98072.46;1856432;77;22341;-67
2021/05/19 01:07:27;;;;;;;3.02;2.60;;;;;;;22.53;77.14;98071.67;1836733;77;20925;-68
2021/05/19 01:09:54;;;;;;;2.92;2.67;;;;;;;22.51;77.23;98077.12;1843779;77;20981;-67
2021/05/19 01:12:22;;;;;;;2.60;2.40;;;;;;;22.49;77.39;98078.75;1828965;75;21059;-67
2021/05/19 01:14:50;;;;;;;2.75;2.50;;;;;;;22.47;77.38;98082.84;1831435;77;21045;-67
2021/05/19 01:17:17;;;;;;;2.45;2.25;;;;;;;22.45;77.43;98080.98;1834282;76;21673;-67
2021/05/19 01:19:51;;;;;;;2.72;2.52;;;;;;;22.47;77.46;98083.64;1842885;77;20988;-67
2021/05/19 01:22:27;;;;;;;2.83;2.62;;;;;;;22.54;77.11;98080.59;1830849;77;20939;-68
2021/05/19 01:24:55;;;;;;;3.60;2.33;;;;;;;22.53;77.07;98086.55;1838960;77;21036;-67
2021/05/19 01:27:22;;;;;;;3.15;2.85;;;;;;;22.49;77.12;98090.93;1832656;75;21052;-68
2021/05/19 01:29:52;;;;;;;2.70;2.50;;;;;;;22.48;77.07;98093.91;1836071;77;21105;-67
2021/05/19 01:32:19;;;;;;;3.35;2.67;;;;;;;22.46;77.14;98092.05;1855000;77;21092;-67
2021/05/19 01:34:45;;;;;;;2.60;2.40;;;;;;;22.44;77.21;98095.58;1844088;77;21001;-67
2021/05/19 01:37:13;;;;;;;2.47;2.27;;;;;;;22.41;77.25;98090.21;1844262;76;21079;-66
2021/05/19 01:39:40;;;;;;;2.58;2.37;;;;;;;22.45;77.17;98088.54;1830765;76;21085;-67
2021/05/19 01:42:08;;;;;;;2.80;2.60;;;;;;;22.53;76.75;98086.55;1837158;75;21175;-67
2021/05/19 01:44:35;;;;;;;2.77;2.47;;;;;;;22.52;76.75;98088.19;1848985;76;21075;-67
2021/05/19 01:47:05;;;;;;;2.80;2.60;;;;;;;22.49;76.74;98082.02;1844924;76;21085;-69
2021/05/19 01:49:34;;;;;;;2.65;2.45;;;;;;;22.47;76.77;98089.06;1841771;75;21578;-67
2021/05/19 01:52:01;;;;;;;3.08;2.77;;;;;;;22.45;76.88;98086.39;1845309;77;21137;-67
2021/05/19 01:54:29;;;;;;;3.02;2.72;;;;;;;22.42;76.90;98086.39;1780772;79;21563;-67
2021/05/19 01:56:55;;;;;;;2.67;2.47;;;;;;;22.40;76.95;98084.52;1767582;79;21082;-67
2021/05/19 01:59:22;;;;;;;2.55;2.37;;;;;;;22.38;77.01;98086.16;1771110;79;21079;-68
2021/05/19 02:01:51;;;;;;;2.60;2.40;;;;;;;22.41;77.05;98092.91;1765257;79;21549;-67
2021/05/19 02:04:18;;;;;;;2.77;2.58;;;;;;;22.48;76.67;98085.80;1764085;79;21043;-68
2021/05/19 02:06:54;;;;;;;3.00;2.50;;;;;;;22.47;76.63;98088.27;1766897;79;21102;-67
2021/05/19 02:09:23;;;;;;;2.40;2.20;;;;;;;22.44;76.66;98082.86;1782978;79;21138;-68
2021/05/19 02:11:52;;;;;;;3.02;2.83;;;;;;;22.42;76.74;98086.39;1769831;79;21120;-67
2021/05/19 02:14:20;;;;;;;2.55;2.35;;;;;;;22.40;76.88;98088.58;1772105;79;21071;-67
2021/05/19 02:16:47;;;;;;;4.08;2.62;;;;;;;22.38;76.88;98093.47;1764201;78;21115;-69
2021/05/19 02:19:14;;;;;;;2.35;2.15;;;;;;;22.37;76.92;98090.52;1773184;79;21082;-68
2021/05/19 02:21:48;;;;;;;2.83;2.62;;;;;;;22.43;76.90;98092.08;1772889;79;21114;-67
2021/05/19 02:24:16;;;;;;;2.67;2.40;;;;;;;22.51;76.54;98091.45;1774586;79;21618;-68
2021/05/19 02:26:44;;;;;;;2.60;2.40;;;;;;;22.50;76.52;98102.55;1772702;79;21566;-68
2021/05/19 02:29:11;;;;;;;2.35;2.25;;;;;;;22.47;76.59;98110.70;1763004;79;21067;-68
2021/05/19 02:31:38;;;;;;;2.80;2.60;;;;;;;22.45;76.63;98114.24;1773700;79;21157;-66
2021/05/19 02:34:05;;;;;;;2.90;2.55;;;;;;;22.44;76.72;98117.23;1821826;78;21108;-68
2021/05/19 02:36:33;;;;;;;2.70;2.50;;;;;;;22.43;76.71;98115.62;1818634;78;21037;-68
2021/05/19 02:39:01;;;;;;;3.22;2.92;;;;;;;22.42;76.81;98118.06;1805036;77;21079;-67
2021/05/19 02:41:27;;;;;;;3.58;2.45;;;;;;;22.41;76.82;98118.62;1793056;78;21624;-67
2021/05/19 02:43:54;;;;;;;2.87;2.65;;;;;;;22.44;76.85;98116.67;1791047;78;21093;-67
2021/05/19 02:46:20;;;;;;;3.33;3.02;;;;;;;22.53;76.54;98115.52;1793355;78;21146;-67
2021/05/19 02:48:47;;;;;;;3.37;3.05;;;;;;;22.51;76.50;98111.74;1794257;77;21067;-67
2021/05/19 02:51:17;;;;;;;3.30;3.10;;;;;;;22.51;76.56;98112.30;1776815;79;21096;-68
2021/05/19 02:53:43;;;;;;;2.83;2.62;;;;;;;22.49;76.53;98112.58;1786350;80;21067;-68
2021/05/19 02:56:10;;;;;;;3.00;2.80;;;;;;;22.49;76.54;98113.93;1769104;79;21088;-69
2021/05/19 02:58:37;;;;;;;3.37;3.08;;;;;;;22.48;76.62;98107.45;1775695;79;21527;-67
2021/05/19 03:01:04;;;;;;;3.33;3.02;;;;;;;22.47;76.64;98121.53;1760837;80;21650;-69
2021/05/19 03:03:31;;;;;;;2.83;2.52;;;;;;;22.45;76.65;98119.66;1763018;79;21151;-68
2021/05/19 03:05:57;;;;;;;3.67;2.90;;;;;;;22.50;76.64;98122.84;1785111;79;21161;-67
2021/05/19 03:08:24;;;;;;;3.00;2.77;;;;;;;22.59;76.26;98118.43;1789922;79;21642;-67
2021/05/19 03:10:50;;;;;;;3.37;3.10;;;;;;;22.57;76.17;98115.20;1793635;79;21061;-67
2021/05/19 03:13:17;;;;;;;3.65;3.35;;;;;;;22.55;76.18;98114.13;1788855;79;21534;-67
2021/05/19 03:15:44;;;;;;;3.02;2.83;;;;;;;22.52;76.23;98109.84;1795783;79;21063;-68
2021/05/19 03:18:10;;;;;;;3.33;3.12;;;;;;;22.53;76.29;98116.32;1787073;79;21042;-68
2021/05/19 03:20:36;;;;;;;3.37;3.08;;;;;;;22.52;76.31;98120.14;1792534;79;21110;-68
2021/05/19 03:23:03;;;;;;;3.65;3.35;;;;;;;22.52;76.33;98120.14;1775790;79;21071;-69
2021/05/19 03:25:29;;;;;;;3.15;2.95;;;;;;;22.51;76.37;98126.63;1804133;78;21024;-68
2021/05/19 03:27:56;;;;;;;3.37;3.08;;;;;;;22.55;76.34;98123.61;1756260;80;21079;-68
2021/05/19 03:30:23;;;;;;;3.50;3.20;;;;;;;22.64;76.00;98118.39;1763714;80;21558;-68
2021/05/19 03:32:50;;;;;;;4.00;3.58;;;;;;;22.65;75.95;98119.19;1767015;80;21684;-67
2021/05/19 03:35:17;;;;;;;3.87;3.58;;;;;;;22.63;76.01;98124.08;1774541;80;21108;-68
2021/05/19 03:37:44;;;;;;;3.98;3.67;;;;;;;22.63;76.03;98129.49;1765111;80;21064;-68
2021/05/19 03:40:13;;;;;;;3.50;3.20;;;;;;;22.62;76.12;98131.41;1763958;80;21099;-68
2021/05/19 03:42:41;;;;;;;4.30;3.60;;;;;;;22.62;76.17;98126.52;1767022;79;21057;-67
2021/05/19 03:45:10;;;;;;;3.87;3.58;;;;;;;22.60;76.30;98132.23;1792923;79;21089;-69
2021/05/19 03:47:36;;;;;;;3.22;2.90;;;;;;;22.61;76.36;98137.09;1781486;79;21089;-69
2021/05/19 03:50:05;;;;;;;3.85;3.47;;;;;;;22.66;76.37;98143.81;1790676;79;21126;-68
2021/05/19 03:52:32;;;;;;;3.98;3.58;;;;;;;22.76;76.04;98146.41;1796363;79;21122;-68
2021/05/19 03:54:58;;;;;;;3.72;3.42;;;;;;;22.75;76.09;98145.61;1801416;79;21009;-70
2021/05/19 03:57:24;;;;;;;4.47;4.17;;;;;;;22.74;76.18;98143.19;1802682;77;21804;-68
2021/05/19 03:59:51;;;;;;;4.87;4.47;;;;;;;22.74;76.21;98145.89;1805064;77;21059;-67
2021/05/19 04:02:17;;;;;;;4.08;3.77;;;;;;;22.74;76.29;98140.48;1797512;78;21080;-68
2021/05/19 04:04:44;;;;;;;4.60;4.17;;;;;;;22.75;76.35;98147.49;1806410;78;21043;-68
2021/05/19 04:07:11;;;;;;;4.22;3.92;;;;;;;22.74;76.42;98141.28;1803242;78;21088;-68
2021/05/19 04:09:39;;;;;;;4.35;3.77;;;;;;;22.74;76.45;98139.13;1803458;78;21108;-69
2021/05/19 04:12:06;;;;;;;4.10;3.67;;;;;;;22.80;76.50;98139.88;1788861;78;21035;-69
2021/05/19 04:14:33;;;;;;;4.80;4.30;;;;;;;22.90;76.16;98145.98;1799777;77;21087;-69
2021/05/19 04:17:00;;;;;;;4.87;4.47;;;;;;;22.90;76.15;98146.53;1791806;77;21036;-68
2021/05/19 04:19:28;;;;;;;4.50;4.10;;;;;;;22.89;76.22;98140.31;1765432;78;21776;-68
2021/05/19 04:21:55;;;;;;;4.08;3.77;;;;;;;22.88;76.30;98142.75;1784935;78;21162;-68
2021/05/19 04:24:21;;;;;;;4.28;3.90;;;;;;;22.89;76.36;98143.55;1793799;78;21077;-69
2021/05/19 04:26:48;;;;;;;4.58;4.17;;;;;;;22.89;76.39;98142.20;1806346;77;21056;-68
2021/05/19 04:29:15;;;;;;;4.78;4.40;;;;;;;22.89;76.41;98145.73;1804774;78;21054;-68
2021/05/19 04:31:41;;;;;;;4.35;4.00;;;;;;;22.90;76.47;98146.53;1803467;78;21050;-70
2021/05/19 04:34:08;;;;;;;4.65;4.30;;;;;;;22.94;76.42;98147.01;1790693;78;21127;-68
2021/05/19 04:36:34;;;;;;;4.47;4.08;;;;;;;23.04;76.10;98140.70;1814579;78;21024;-69
2021/05/19 04:39:01;;;;;;;4.67;4.28;;;;;;;23.05;76.08;98136.11;1815993;77;22160;-69
2021/05/19 04:41:28;;;;;;;4.78;4.35;;;;;;;23.04;76.13;98133.13;1801099;77;21027;-68
2021/05/19 04:43:55;;;;;;;4.78;4.37;;;;;;;23.04;76.19;98130.42;1810264;78;21098;-68
2021/05/19 04:46:21;;;;;;;4.37;4.08;;;;;;;23.06;76.21;98126.87;1801665;77;21077;-67
2021/05/19 04:48:49;;;;;;;4.58;4.17;;;;;;;23.06;76.23;98126.32;1804753;77;21607;-68
2021/05/19 04:51:16;;;;;;;5.22;4.83;;;;;;;23.07;76.26;98130.66;1813243;78;21022;-68
2021/05/19 04:53:42;;;;;;;4.33;4.03;;;;;;;23.09;76.28;98126.31;1795108;78;22232;-68
2021/05/19 04:56:09;;;;;;;4.85;4.45;;;;;;;23.16;76.24;98122.70;1816153;77;21052;-67
2021/05/19 04:58:36;;;;;;;5.65;5.15;;;;;;;23.27;75.61;98111.98;1794228;77;21081;-68
2021/05/19 05:01:02;;;;;;;8.53;5.47;;;;;;;23.27;74.43;98113.89;1801408;79;21058;-67
2021/05/19 05:03:29;;;;;;;6.95;6.08;;;;;;;23.27;73.98;98120.66;1787066;79;21670;-67
2021/05/19 05:05:56;;;;;;;7.10;6.33;;;;;;;23.27;73.48;98122.81;1790852;79;21063;-67
2021/05/19 05:08:22;;;;;;;9.03;7.12;;;;;;;23.28;73.09;98123.64;1797070;79;21043;-68
2021/05/19 05:10:49;;;;;;;7.45;6.53;;;;;;;23.30;72.73;98114.11;1776162;79;21120;-66
2021/05/19 05:13:15;;;;;;;8.68;6.92;;;;;;;23.31;72.27;98121.16;1780686;79;21079;-68
2021/05/19 05:15:42;;;;;;;8.10;7.30;;;;;;;23.33;71.89;98123.03;1772428;79;21628;-68
2021/05/19 05:18:08;;;;;;;9.88;7.00;;;;;;;23.36;71.50;98120.27;1772112;79;21050;-66
2021/05/19 05:20:35;;;;;;;6.97;6.15;;;;;;;23.38;71.04;98125.41;1782277;78;21032;-68
2021/05/19 05:23:03;;;;;;;8.18;6.65;;;;;;;23.41;70.65;98120.22;1797178;79;21090;-68
2021/05/19 05:25:31;;;;;;;8.05;6.30;;;;;;;23.44;70.27;98122.88;1802053;79;21544;-68
2021/05/19 05:27:57;;;;;;;8.65;7.17;;;;;;;23.44;69.99;98122.88;1785829;79;21084;-68
2021/05/19 05:30:23;;;;;;;6.97;6.25;;;;;;;23.47;69.70;98123.64;1772033;79;21071;-68
2021/05/19 05:32:50;;;;;;;6.62;5.92;;;;;;;23.48;69.35;98124.70;1776079;79;21066;-67
2021/05/19 05:35:17;;;;;;;7.55;5.70;;;;;;;23.51;69.02;98124.13;1779502;79;21082;-70
2021/05/19 05:37:43;;;;;;;6.75;6.05;;;;;;;23.53;68.72;98130.62;1780768;79;21091;-68
2021/05/19 05:40:11;;;;;;;7.55;6.58;;;;;;;23.54;68.41;98128.95;1780424;79;21063;-67
2021/05/19 05:42:38;;;;;;;8.53;6.20;;;;;;;23.58;68.09;98128.38;1790362;78;21040;-68
2021/05/19 05:45:06;;;;;;;6.78;6.03;;;;;;;23.60;67.77;98124.82;1783968;79;21024;-67
2021/05/19 05:47:34;;;;;;;8.80;6.28;;;;;;;23.61;67.52;98123.18;1773991;79;21113;-68
2021/05/19 05:50:03;;;;;;;8.63;6.20;;;;;;;23.62;67.30;98124.78;1802344;79;21037;-68
2021/05/19 05:52:30;;;;;;;6.85;6.15;;;;;;;23.63;67.17;98130.47;1778184;79;21039;-67
2021/05/19 05:54:57;;;;;;;6.72;6.12;;;;;;;23.65;66.93;98134.25;1804332;79;21057;-67
2021/05/19 05:57:23;;;;;;;7.42;6.60;;;;;;;23.65;66.70;98134.25;1793185;79;21082;-66
2021/05/19 05:59:49;;;;;;;7.60;6.22;;;;;;;23.66;66.46;98135.31;1764964;78;21071;-66
2021/05/19 06:02:16;;;;;;;7.17;6.47;;;;;;;23.66;66.32;98142.09;1775130;79;21090;-67
2021/05/19 06:04:43;;;;;;;8.08;7.28;;;;;;;23.69;66.12;98139.34;1796028;79;21652;-67
2021/05/19 06:07:10;;;;;;;7.30;6.70;;;;;;;23.70;65.93;98144.47;1796159;79;21028;-67
2021/05/19 06:09:38;;;;;;;9.20;8.30;;;;;;;23.74;65.86;98148.77;1746220;80;21070;-68
2021/05/19 06:12:04;;;;;;;8.53;7.72;;;;;;;23.75;65.71;98145.73;1766746;80;21087;-67
2021/05/19 06:14:31;;;;;;;8.68;7.85;;;;;;;23.79;65.72;98150.61;1779516;79;21090;-67
2021/05/19 06:17:01;;;;;;;12.13;10.30;;;;;;;23.81;66.21;98153.83;1779317;79;21043;-68
2021/05/19 06:19:26;;;;;;;10.80;9.80;;;;;;;23.84;66.23;98147.84;1771863;78;21090;-68
2021/05/19 06:21:53;;;;;;;11.20;9.45;;;;;;;23.86;66.22;98150.50;1780511;80;21074;-68
2021/05/19 06:24:19;;;;;;;13.43;9.30;;;;;;;23.89;66.02;98150.45;1775741;79;21098;-68
2021/05/19 06:26:45;;;;;;;10.95;9.78;;;;;;;23.92;65.80;98150.67;1762902;80;21092;-67
2021/05/19 06:29:13;;;;;;;11.12;10.03;;;;;;;23.96;65.54;98154.96;1771714;80;21127;-69
2021/05/19 06:31:39;;;;;;;11.18;9.98;;;;;;;24.00;65.23;98158.69;1769926;80;21070;-66
2021/05/19 06:34:06;;;;;;;12.00;10.25;;;;;;;24.03;64.91;98160.83;1768224;80;21041;-74
2021/05/19 06:36:32;;;;;;;11.75;10.55;;;;;;;24.06;64.65;98170.27;1762909;78;21861;-73
2021/05/19 06:38:59;;;;;;;11.80;10.40;;;;;;;24.08;63.86;98170.78;1765721;80;21178;-75
2021/05/19 06:41:25;;;;;;;11.22;10.10;;;;;;;24.08;64.06;98178.92;1786823;80;21137;-72
2021/05/19 06:43:53;;;;;;;12.37;11.12;;;;;;;24.09;64.04;98185.41;1783116;80;21087;-72
2021/05/19 06:46:21;;;;;;;13.72;11.40;;;;;;;24.09;64.24;98186.77;1777660;79;21076;-77
2021/05/19 06:48:48;;;;;;;13.88;12.47;;;;;;;24.10;63.58;98188.36;1805973;79;21808;-79
2021/05/19 06:51:15;;;;;;;13.18;11.90;;;;;;;24.08;63.08;98186.50;1779854;79;21038;-79
2021/05/19 06:53:41;;;;;;;13.45;12.05;;;;;;;24.04;62.93;98190.11;1774887;80;21048;-80
2021/05/19 06:56:08;;;;;;;13.10;11.78;;;;;;;24.01;62.86;98191.51;1787631;79;21074;-80
2021/05/19 06:58:35;;;;;;;14.23;12.73;;;;;;;24.01;62.68;98191.51;1766516;78;21087;-78
2021/05/19 07:01:03;;;;;;;13.83;12.50;;;;;;;24.00;62.54;98196.66;1788238;78;21101;-82
2021/05/19 07:03:32;;;;;;;13.68;12.28;;;;;;;24.00;62.38;98202.09;1780500;78;21082;-75
2021/05/19 07:05:58;;;;;;;15.55;13.95;;;;;;;23.99;62.29;98200.49;1772071;79;21032;-83
2021/05/19 07:08:24;;;;;;;16.62;14.18;;;;;;;24.01;62.41;98202.89;1786080;79;21621;-80
2021/05/19 07:10:51;;;;;;;14.98;13.50;;;;;;;24.01;62.58;98206.42;1782894;78;21016;-83
2021/05/19 07:13:18;;;;;;;16.95;13.68;;;;;;;24.01;62.79;98205.59;1786694;79;21148;-78
2021/05/19 07:15:51;;;;;;;15.70;13.08;;;;;;;24.02;62.90;98217.52;1784483;79;21102;-78
2021/05/19 07:18:15;;;;;;;14.28;12.78;;;;;;;24.02;63.16;98213.45;1777420;79;21079;-84
2021/05/19 07:20:42;;;;;;;15.50;13.60;;;;;;;24.03;63.31;98218.31;1777500;79;21067;-82
2021/05/19 07:23:09;;;;;;;15.58;13.93;;;;;;;24.06;62.68;98214.47;1785277;78;21102;-80
2021/05/19 07:25:35;;;;;;;15.72;13.83;;;;;;;24.06;62.49;98211.75;1780587;79;21728;-82
2021/05/19 07:28:01;;;;;;;14.87;13.40;;;;;;;24.06;62.69;98210.40;1779711;79;21059;-80
2021/05/19 07:30:30;;;;;;;14.80;13.28;;;;;;;24.08;63.04;98211.47;1780803;79;21076;-84
2021/05/19 07:32:56;;;;;;;13.78;12.47;;;;;;;24.09;63.35;98210.38;1775645;79;21048;-79
2021/05/19 07:35:23;;;;;;;13.62;12.33;;;;;;;24.11;63.83;98211.69;1774515;79;21087;-79
2021/05/19 07:37:49;;;;;;;13.18;11.75;;;;;;;24.13;64.00;98214.12;1786082;79;21091;-84
2021/05/19 07:40:16;;;;;;;13.65;12.37;;;;;;;24.17;63.72;98212.42;1765120;79;21052;-81
2021/05/19 07:42:44;;;;;;;15.63;12.23;;;;;;;24.20;63.18;98215.09;1770037;78;21108;-81
2021/05/19 07:45:11;;;;;;;12.65;11.45;;;;;;;24.23;62.93;98219.94;1812536;77;21589;-77
2021/05/19 07:47:38;;;;;;;13.98;11.80;;;;;;;24.26;62.65;98229.66;1804274;77;21559;-79
2021/05/19 07:50:05;;;;;;;14.28;12.60;;;;;;;24.27;62.28;98220.95;1770588;79;21663;-80
2021/05/19 07:52:33;;;;;;;12.95;11.78;;;;;;;24.30;62.12;98231.23;1762873;79;21561;-81
2021/05/19 07:54:59;;;;;;;13.20;11.83;;;;;;;24.31;62.13;98230.91;1774270;79;21044;-81
2021/05/19 07:57:28;;;;;;;13.05;11.70;;;;;;;24.35;62.08;98232.48;1787526;78;21043;-78
2021/05/19 08:02:33;;;;;;;12.20;11.00;;;;;;;24.40;61.23;98232.42;1731090;80;21759;-77
2021/05/19 08:05:00;;;;;;;13.38;11.85;;;;;;;24.43;61.09;98235.08;1782851;80;21023;-83
2021/05/19 08:07:27;;;;;;;13.32;10.80;;;;;;;24.45;61.15;98235.59;1771120;80;21566;-81
2021/05/19 08:09:53;;;;;;;11.97;9.53;;;;;;;24.48;60.83;98235.81;1771457;80;21658;-73
2021/05/19 08:12:20;;;;;;;11.40;10.05;;;;;;;24.50;60.07;98239.59;1772620;80;21066;-74
2021/05/19 08:14:48;;;;;;;10.68;9.60;;;;;;;24.52;60.41;98233.34;1760997;80;21157;-76
2021/05/19 08:17:18;;;;;;;10.80;9.73;;;;;;;24.55;60.47;98236.84;1767705;80;21113;-77
2021/05/19 08:19:43;;;;;;;10.55;9.70;;;;;;;24.60;60.46;98233.22;1768345;80;21062;-75
2021/05/19 08:22:12;;;;;;;11.18;10.05;;;;;;;24.63;60.50;98232.08;1764940;80;21074;-77
2021/05/19 08:24:38;;;;;;;10.43;9.33;;;;;;;24.68;60.51;98233.33;1774822;80;21063;-77
2021/05/19 08:27:05;;;;;;;10.78;9.70;;;;;;;24.72;60.57;98235.73;1759654;80;21720;-76
2021/05/19 08:29:32;;;;;;;9.65;8.75;;;;;;;24.78;60.56;98235.63;1778038;79;21605;-80
2021/05/19 08:31:59;;;;;;;9.03;8.10;;;;;;;24.82;60.56;98238.82;1776245;80;21106;-79
2021/05/19 08:34:26;;;;;;;9.78;8.93;;;;;;;24.85;60.56;98238.77;1769029;80;21102;-77
2021/05/19 08:36:52;;;;;;;9.58;8.73;;;;;;;24.88;60.54;98235.47;1776726;80;21054;-78
2021/05/19 08:39:20;;;;;;;9.88;8.98;;;;;;;24.91;60.54;98240.28;1764546;79;21866;-76
2021/05/19 08:41:48;;;;;;;9.63;8.80;;;;;;;24.96;60.48;98242.13;1771752;79;21074;-78
2021/05/19 08:44:16;;;;;;;8.88;8.13;;;;;;;24.99;60.45;98242.86;1769290;80;21151;-75
2021/05/19 08:46:45;;;;;;;9.15;8.30;;;;;;;25.01;60.40;98239.29;1798906;78;21088;-77
2021/05/19 08:49:14;;;;;;;9.65;7.95;;;;;;;25.03;60.36;98243.88;1789768;78;21032;-77
2021/05/19 08:51:40;;;;;;;8.68;7.97;;;;;;;25.06;60.33;98252.23;1776601;80;21079;-74
2021/05/19 08:54:09;;;;;;;8.53;7.83;;;;;;;25.08;60.29;98245.14;1780920;80;21063;-77
2021/05/19 08:56:38;;;;;;;16.25;9.65;;;;;;;25.09;60.27;98246.74;1771063;80;21103;-80
2021/05/19 08:59:06;;;;;;;8.58;7.78;;;;;;;25.09;60.20;98247.56;1772780;80;21072;-76
2021/05/19 09:01:45;;;;;;;9.75;8.80;;;;;;;25.09;60.14;98250.28;1786964;79;21063;-77
2021/05/19 09:04:19;;;;;;;8.48;7.70;;;;;;;25.08;60.16;98247.30;1767629;80;21635;-79
2021/05/19 09:06:58;;;;;;;8.13;7.40;;;;;;;25.09;60.12;98250.81;1775991;78;21075;-79
2021/05/19 09:09:31;;;;;;;7.80;7.20;;;;;;;25.09;60.12;98256.25;1791998;78;21655;-79
2021/05/19 09:12:04;;;;;;;9.48;7.33;;;;;;;25.09;60.12;98263.04;1793678;79;21079;-80
2021/05/19 09:14:34;;;;;;;;;;;;;;;25.08;60.09;98263.60;1782268;79;21099;-80
2021/05/19 09:17:30;;;;;;;7.12;6.40;;;;;;;25.08;60.05;98258.73;1779645;79;20234;-80
2021/05/19 09:20:12;;;;;;;7.53;6.83;;;;;;;25.01;60.19;98256.39;1786979;79;21117;-75
2021/05/19 09:22:41;;;;;;;7.12;6.60;;;;;;;25.00;60.22;98264.30;1804090;78;21063;-75
2021/05/19 09:25:26;;;;;;;7.15;6.55;;;;;;;25.01;60.20;98259.10;1763281;80;21118;-76
2021/05/19 09:27:57;;;;;;;7.40;6.70;;;;;;;25.03;60.20;98262.33;1779580;78;21103;-77
2021/05/19 09:30:43;;;;;;;7.55;6.85;;;;;;;25.04;60.13;98255.80;1764890;79;21118;-72
2021/05/19 09:33:24;;;;;;;7.53;6.80;;;;;;;25.05;60.07;98257.95;1789572;78;21068;-78
2021/05/19 09:36:24;;;;;;;6.67;6.10;;;;;;;25.05;60.09;98260.14;1766488;79;21075;-73
2021/05/19 09:38:53;;;;;;;6.33;5.83;;;;;;;25.08;60.01;98264.96;1789514;78;21114;-71
2021/05/19 09:41:35;;;;;;;6.90;6.20;;;;;;;25.09;59.87;98256.25;1765690;80;21150;-73
2021/05/19 09:44:04;;;;;;;6.22;5.72;;;;;;;25.11;59.87;98259.47;1780102;79;21098;-76
2021/05/19 09:49:22;;;;;;;4.53;4.12;;;;;;;25.12;58.26;98257.02;1783439;79;21597;-72
2021/05/19 09:51:57;;;;;;;5.60;3.85;;;;;;;25.10;57.08;98254.59;1804547;78;21583;-70
2021/05/19 09:54:39;;;;;;;4.67;4.28;;;;;;;25.06;56.33;98254.16;1772829;80;21084;-75
2021/05/19 09:57:09;;;;;;;4.47;4.08;;;;;;;25.01;56.62;98252.88;1771134;78;21696;-74
2021/05/19 09:59:37;;;;;;;5.40;5.00;;;;;;;25.01;56.89;98255.59;1770996;80;21586;-73
2021/05/19 10:02:04;;;;;;;4.62;4.00;;;;;;;25.04;56.97;98249.02;1793508;78;21112;-75
2021/05/19 10:04:34;;;;;;;5.47;4.25;;;;;;;25.10;56.86;98257.31;1796723;78;21160;-76
2021/05/19 10:06:59;;;;;;;3.83;3.52;;;;;;;25.16;56.60;98258.03;1785575;78;21077;-74
2021/05/19 10:09:27;;;;;;;3.75;3.45;;;;;;;25.21;55.99;98259.30;1785184;79;21079;-74
2021/05/19 10:11:56;;;;;;;3.50;3.20;;;;;;;25.28;55.72;98267.91;1789821;79;21126;-73
2021/05/19 10:14:23;;;;;;;5.20;3.85;;;;;;;25.33;55.21;98261.55;1788544;78;21546;-72
2021/05/19 10:17:08;;;;;;;4.60;3.30;;;;;;;25.38;55.15;98260.64;1782655;78;21106;-75
2021/05/19 10:19:52;;;;;;;4.10;3.47;;;;;;;25.44;54.88;98278.45;1808333;77;21070;-75
2021/05/19 10:22:20;;;;;;;3.10;2.83;;;;;;;25.47;53.55;98272.42;1800101;78;21140;-74
2021/05/19 10:25:02;;;;;;;4.17;3.08;;;;;;;25.48;53.39;98273.49;1803366;77;21010;-75
2021/05/19 10:27:26;;;;;;;3.47;2.58;;;;;;;25.51;52.99;98264.71;1784917;79;21075;-71
2021/05/19 10:29:56;;;;;;;3.37;2.50;;;;;;;25.55;51.91;98264.91;1809361;78;21097;-68
2021/05/19 10:32:28;;;;;;;3.12;2.80;;;;;;;25.57;51.23;98268.14;1804869;78;21082;-71
2021/05/19 10:35:01;;;;;;;2.58;2.37;;;;;;;25.60;51.01;98272.19;1797305;78;21071;-71
2021/05/19 10:37:35;;;;;;;3.08;2.80;;;;;;;25.63;51.03;98278.36;1791399;78;21579;-70
2021/05/19 10:40:18;;;;;;;2.52;2.33;;;;;;;25.67;50.79;98278.00;1774069;78;21109;-69
2021/05/19 10:42:54;;;;;;;2.33;2.12;;;;;;;25.72;50.03;98273.03;1786463;78;21094;-69
2021/05/19 10:45:21;;;;;;;2.45;2.20;;;;;;;25.73;49.85;98281.42;1799507;78;21044;-71
2021/05/19 10:47:48;;;;;;;3.35;1.87;;;;;;;25.76;49.18;98272.67;1772305;78;21042;-72
2021/05/19 10:50:36;;;;;;;1.75;1.65;;;;;;;25.76;48.38;98270.75;1782892;76;21091;-73
2021/05/19 10:58:54;;;;;;;2.30;2.10;;;;;;;25.81;48.32;98282.89;1709680;82;21034;-72
2021/05/19 11:01:50;;;;;;;2.77;1.80;;;;;;;25.83;48.62;98286.67;1725673;81;21248;-71
2021/05/19 11:04:25;;;;;;;3.25;1.98;;;;;;;25.84;47.76;98280.11;1732199;81;21050;-73
2021/05/19 11:07:03;;;;;;;2.45;2.02;;;;;;;25.81;47.94;98278.81;1720176;82;21094;-74
2021/05/19 11:09:40;;;;;;;4.53;1.77;;;;;;;25.79;48.52;98281.03;1714457;82;21139;-73
2021/05/19 11:12:26;;;;;;;4.37;1.70;;;;;;;25.76;48.23;98282.98;1712007;82;21088;-72
2021/05/19 11:17:31;;;;;;;2.58;2.37;;;;;;;25.66;48.69;98289.44;1728703;81;21115;-74
2021/05/19 11:19:55;;;;;;;3.10;2.40;;;;;;;25.60;49.04;98285.22;1743252;81;21199;-76
2021/05/19 11:22:21;;;;;;;3.27;2.40;;;;;;;25.53;49.63;98292.97;1742903;81;21616;-75
2021/05/19 11:24:56;;;;;;;2.95;2.30;;;;;;;25.45;50.20;98291.75;1733509;81;21088;-74
2021/05/19 11:27:26;;;;;;;3.08;2.65;;;;;;;25.40;50.67;98296.48;1739720;81;21695;-70
2021/05/19 11:29:54;;;;;;;3.90;3.00;;;;;;;25.36;51.06;98300.34;1731246;81;21047;-70
2021/05/19 11:32:30;;;;;;;5.40;2.52;;;;;;;25.29;51.08;98295.31;1732002;81;21130;-72
2021/05/19 11:35:17;;;;;;;5.40;3.10;;;;;;;25.24;51.39;98303.55;1734238;81;21055;-75
2021/05/19 11:37:56;;;;;;;3.58;2.70;;;;;;;25.18;51.56;98309.36;1733242;81;21635;-80
2021/05/19 11:40:23;;;;;;;3.25;2.52;;;;;;;25.11;51.81;98305.66;1741093;81;21115;-79
2021/05/19 11:42:57;;;;;;;2.80;2.60;;;;;;;25.05;51.94;98302.78;1740423;81;21050;-72
2021/05/19 11:45:25;;;;;;;2.72;2.47;;;;;;;24.99;52.07;98301.27;1738561;81;21054;-72
2021/05/19 11:47:52;;;;;;;4.78;3.52;;;;;;;24.93;52.21;98299.19;1724727;81;21023;-68
2021/05/19 11:50:24;;;;;;;4.05;2.90;;;;;;;24.87;52.39;98312.60;1732323;81;21140;-69
2021/05/19 11:53:05;;;;;;;3.37;2.70;;;;;;;24.83;53.00;98323.25;1725336;80;21658;-71
2021/05/19 11:55:45;;;;;;;4.50;2.80;;;;;;;24.81;53.23;98325.45;1733079;81;21051;-68